sensor_id;sensor_type;location;lat;lon;timestamp;P1;durP1;ratioP1;P2;durP2;ratioP2
10226;SDS011;15634;48.766;2.272;2022-11-18T00:01:24;4.65;;;2.47;;
10226;SDS011;15634;48.766;2.272;2022-11-18T00:03:51;5.82;;;2.40;;
10226;SDS011;15634;48.766;2.272;2022-11-18T00:06:18;3.10;;;1.90;;
10226;SDS011;15634;48.766;2.272;2022-11-18T00:08:47;5.55;;;2.13;;
10226;SDS011;15634;48.766;2.272;2022-11-18T00:11:15;7.60;;;2.30;;
10226;SDS011;15634;48.766;2.272;2022-11-18T00:14:03;4.38;;;2.22;;
10226;SDS011;15634;48.766;2.272;2022-11-18T00:16:45;6.30;;;2.20;;
10226;SDS011;15634;48.766;2.272;2022-11-18T00:19:12;5.15;;;2.08;;
10226;SDS011;15634;48.766;2.272;2022-11-18T00:21:39;5.88;;;2.00;;
10226;SDS011;15634;48.766;2.272;2022-11-18T00:24:07;5.78;;;2.10;;
10226;SDS011;15634;48.766;2.272;2022-11-18T00:26:33;7.47;;;2.42;;
10226;SDS011;15634;48.766;2.272;2022-11-18T00:29:01;6.60;;;2.30;;
10226;SDS011;15634;48.766;2.272;2022-11-18T00:31:28;4.65;;;2.03;;
10226;SDS011;15634;48.766;2.272;2022-11-18T00:33:54;8.32;;;2.10;;
10226;SDS011;15634;48.766;2.272;2022-11-18T00:36:21;4.68;;;2.30;;
10226;SDS011;15634;48.766;2.272;2022-11-18T00:38:47;5.13;;;2.00;;
10226;SDS011;15634;48.766;2.272;2022-11-18T00:41:15;4.05;;;1.80;;
10226;SDS011;15634;48.766;2.272;2022-11-18T00:43:42;5.80;;;2.20;;
10226;SDS011;15634;48.766;2.272;2022-11-18T00:46:08;7.85;;;2.10;;
10226;SDS011;15634;48.766;2.272;2022-11-18T00:48:36;4.57;;;1.80;;
10226;SDS011;15634;48.766;2.272;2022-11-18T00:51:06;6.35;;;2.38;;
10226;SDS011;15634;48.766;2.272;2022-11-18T00:53:34;5.85;;;2.17;;
10226;SDS011;15634;48.766;2.272;2022-11-18T00:56:01;6.65;;;1.92;;
10226;SDS011;15634;48.766;2.272;2022-11-18T00:58:29;5.55;;;2.20;;
10226;SDS011;15634;48.766;2.272;2022-11-18T01:00:55;5.35;;;1.95;;
10226;SDS011;15634;48.766;2.272;2022-11-18T01:03:22;8.13;;;2.50;;
10226;SDS011;15634;48.766;2.272;2022-11-18T01:05:49;6.22;;;1.85;;
10226;SDS011;15634;48.766;2.272;2022-11-18T01:08:16;4.22;;;2.10;;
10226;SDS011;15634;48.766;2.272;2022-11-18T01:10:44;5.90;;;2.38;;
10226;SDS011;15634;48.766;2.272;2022-11-18T01:13:11;5.97;;;2.00;;
10226;SDS011;15634;48.766;2.272;2022-11-18T01:15:45;4.82;;;2.20;;
10226;SDS011;15634;48.766;2.272;2022-11-18T01:18:13;3.42;;;1.52;;
10226;SDS011;15634;48.766;2.272;2022-11-18T01:20:40;10.07;;;2.20;;
10226;SDS011;15634;48.766;2.272;2022-11-18T01:23:07;12.38;;;2.78;;
10226;SDS011;15634;48.766;2.272;2022-11-18T01:25:34;6.60;;;2.00;;
10226;SDS011;15634;48.766;2.272;2022-11-18T01:28:01;4.13;;;1.67;;
10226;SDS011;15634;48.766;2.272;2022-11-18T01:30:27;4.97;;;2.00;;
10226;SDS011;15634;48.766;2.272;2022-11-18T01:32:55;4.57;;;1.80;;
10226;SDS011;15634;48.766;2.272;2022-11-18T01:35:23;6.72;;;2.10;;
10226;SDS011;15634;48.766;2.272;2022-11-18T01:37:49;10.63;;;2.00;;
10226;SDS011;15634;48.766;2.272;2022-11-18T01:40:16;4.47;;;1.85;;
10226;SDS011;15634;48.766;2.272;2022-11-18T01:42:42;4.97;;;1.92;;
10226;SDS011;15634;48.766;2.272;2022-11-18T01:45:14;3.92;;;1.88;;
10226;SDS011;15634;48.766;2.272;2022-11-18T01:47:46;5.07;;;1.83;;
10226;SDS011;15634;48.766;2.272;2022-11-18T01:50:16;3.33;;;2.00;;
10226;SDS011;15634;48.766;2.272;2022-11-18T01:52:44;4.75;;;1.80;;
10226;SDS011;15634;48.766;2.272;2022-11-18T01:55:12;4.57;;;1.90;;
10226;SDS011;15634;48.766;2.272;2022-11-18T01:57:40;9.02;;;1.83;;
10226;SDS011;15634;48.766;2.272;2022-11-18T02:00:07;4.13;;;1.65;;
10226;SDS011;15634;48.766;2.272;2022-11-18T02:02:35;3.78;;;1.52;;
10226;SDS011;15634;48.766;2.272;2022-11-18T02:05:03;3.17;;;1.40;;
10226;SDS011;15634;48.766;2.272;2022-11-18T02:07:32;2.92;;;1.77;;
10226;SDS011;15634;48.766;2.272;2022-11-18T02:10:01;5.78;;;1.63;;
10226;SDS011;15634;48.766;2.272;2022-11-18T02:12:29;6.28;;;1.85;;
10226;SDS011;15634;48.766;2.272;2022-11-18T02:14:56;9.25;;;1.70;;
10226;SDS011;15634;48.766;2.272;2022-11-18T02:17:26;4.28;;;2.17;;
10226;SDS011;15634;48.766;2.272;2022-11-18T02:20:07;4.65;;;1.90;;
10226;SDS011;15634;48.766;2.272;2022-11-18T02:22:48;6.60;;;2.08;;
10226;SDS011;15634;48.766;2.272;2022-11-18T02:25:28;7.53;;;2.20;;
10226;SDS011;15634;48.766;2.272;2022-11-18T02:28:02;4.63;;;1.88;;
10226;SDS011;15634;48.766;2.272;2022-11-18T02:30:43;5.60;;;1.70;;
10226;SDS011;15634;48.766;2.272;2022-11-18T02:33:16;4.97;;;1.70;;
10226;SDS011;15634;48.766;2.272;2022-11-18T02:35:45;3.50;;;1.70;;
10226;SDS011;15634;48.766;2.272;2022-11-18T02:38:14;6.88;;;2.10;;
10226;SDS011;15634;48.766;2.272;2022-11-18T02:40:44;3.85;;;1.65;;
10226;SDS011;15634;48.766;2.272;2022-11-18T02:43:14;3.30;;;1.60;;
10226;SDS011;15634;48.766;2.272;2022-11-18T02:45:45;6.70;;;2.00;;
10226;SDS011;15634;48.766;2.272;2022-11-18T02:48:14;3.92;;;1.60;;
10226;SDS011;15634;48.766;2.272;2022-11-18T02:50:42;4.93;;;2.00;;
10226;SDS011;15634;48.766;2.272;2022-11-18T02:53:11;5.30;;;1.98;;
10226;SDS011;15634;48.766;2.272;2022-11-18T02:55:39;6.00;;;1.90;;
10226;SDS011;15634;48.766;2.272;2022-11-18T02:58:08;4.55;;;1.67;;
10226;SDS011;15634;48.766;2.272;2022-11-18T03:00:36;4.55;;;1.77;;
10226;SDS011;15634;48.766;2.272;2022-11-18T03:03:20;4.03;;;1.70;;
10226;SDS011;15634;48.766;2.272;2022-11-18T03:05:51;8.63;;;2.08;;
10226;SDS011;15634;48.766;2.272;2022-11-18T03:08:22;5.45;;;1.90;;
10226;SDS011;15634;48.766;2.272;2022-11-18T03:10:51;4.63;;;1.77;;
10226;SDS011;15634;48.766;2.272;2022-11-18T03:13:23;2.83;;;2.00;;
10226;SDS011;15634;48.766;2.272;2022-11-18T03:15:54;3.28;;;1.85;;
10226;SDS011;15634;48.766;2.272;2022-11-18T03:18:27;4.65;;;1.75;;
10226;SDS011;15634;48.766;2.272;2022-11-18T03:21:00;2.17;;;1.50;;
10226;SDS011;15634;48.766;2.272;2022-11-18T03:23:30;4.93;;;1.70;;
10226;SDS011;15634;48.766;2.272;2022-11-18T03:26:00;3.15;;;1.80;;
10226;SDS011;15634;48.766;2.272;2022-11-18T03:28:29;7.03;;;2.05;;
10226;SDS011;15634;48.766;2.272;2022-11-18T03:31:01;7.10;;;2.10;;
10226;SDS011;15634;48.766;2.272;2022-11-18T03:33:33;6.15;;;1.80;;
10226;SDS011;15634;48.766;2.272;2022-11-18T03:36:01;5.00;;;1.70;;
10226;SDS011;15634;48.766;2.272;2022-11-18T03:38:31;4.72;;;1.77;;
10226;SDS011;15634;48.766;2.272;2022-11-18T03:41:00;4.03;;;1.60;;
10226;SDS011;15634;48.766;2.272;2022-11-18T03:43:30;3.65;;;1.60;;
10226;SDS011;15634;48.766;2.272;2022-11-18T03:46:01;5.22;;;2.15;;
10226;SDS011;15634;48.766;2.272;2022-11-18T03:48:30;4.93;;;2.10;;
10226;SDS011;15634;48.766;2.272;2022-11-18T03:51:05;3.53;;;1.98;;
10226;SDS011;15634;48.766;2.272;2022-11-18T03:53:34;4.75;;;1.73;;
10226;SDS011;15634;48.766;2.272;2022-11-18T03:56:03;8.10;;;1.98;;
10226;SDS011;15634;48.766;2.272;2022-11-18T03:58:32;4.68;;;2.00;;
10226;SDS011;15634;48.766;2.272;2022-11-18T04:01:03;5.47;;;2.03;;
10226;SDS011;15634;48.766;2.272;2022-11-18T04:03:36;7.80;;;2.05;;
10226;SDS011;15634;48.766;2.272;2022-11-18T04:06:03;6.20;;;2.20;;
10226;SDS011;15634;48.766;2.272;2022-11-18T04:08:38;6.50;;;2.15;;
10226;SDS011;15634;48.766;2.272;2022-11-18T04:11:05;9.40;;;1.92;;
10226;SDS011;15634;48.766;2.272;2022-11-18T04:13:55;7.53;;;1.90;;
10226;SDS011;15634;48.766;2.272;2022-11-18T04:16:21;6.32;;;1.88;;
10226;SDS011;15634;48.766;2.272;2022-11-18T04:18:49;8.45;;;2.00;;
10226;SDS011;15634;48.766;2.272;2022-11-18T04:21:16;6.18;;;2.42;;
10226;SDS011;15634;48.766;2.272;2022-11-18T04:23:42;5.45;;;2.05;;
10226;SDS011;15634;48.766;2.272;2022-11-18T04:26:09;7.50;;;2.63;;
10226;SDS011;15634;48.766;2.272;2022-11-18T04:28:36;7.45;;;1.95;;
10226;SDS011;15634;48.766;2.272;2022-11-18T04:31:03;9.48;;;2.30;;
10226;SDS011;15634;48.766;2.272;2022-11-18T04:33:29;5.32;;;2.22;;
10226;SDS011;15634;48.766;2.272;2022-11-18T04:35:57;8.57;;;2.30;;
10226;SDS011;15634;48.766;2.272;2022-11-18T04:38:24;8.13;;;2.58;;
10226;SDS011;15634;48.766;2.272;2022-11-18T04:40:50;5.90;;;2.20;;
10226;SDS011;15634;48.766;2.272;2022-11-18T04:43:17;8.82;;;2.33;;
10226;SDS011;15634;48.766;2.272;2022-11-18T04:45:44;6.95;;;2.20;;
10226;SDS011;15634;48.766;2.272;2022-11-18T04:48:10;8.93;;;2.42;;
10226;SDS011;15634;48.766;2.272;2022-11-18T04:50:37;7.93;;;2.60;;
10226;SDS011;15634;48.766;2.272;2022-11-18T04:53:05;4.90;;;2.00;;
10226;SDS011;15634;48.766;2.272;2022-11-18T04:55:34;8.95;;;2.80;;
10226;SDS011;15634;48.766;2.272;2022-11-18T04:58:01;8.18;;;2.42;;
10226;SDS011;15634;48.766;2.272;2022-11-18T05:00:27;9.52;;;2.22;;
10226;SDS011;15634;48.766;2.272;2022-11-18T05:02:54;9.23;;;2.65;;
10226;SDS011;15634;48.766;2.272;2022-11-18T05:05:20;12.07;;;2.67;;
10226;SDS011;15634;48.766;2.272;2022-11-18T05:07:47;17.27;;;3.13;;
10226;SDS011;15634;48.766;2.272;2022-11-18T05:10:15;12.43;;;2.38;;
10226;SDS011;15634;48.766;2.272;2022-11-18T05:12:42;7.20;;;2.60;;
10226;SDS011;15634;48.766;2.272;2022-11-18T05:15:13;7.35;;;2.50;;
10226;SDS011;15634;48.766;2.272;2022-11-18T05:17:40;7.47;;;2.40;;
10226;SDS011;15634;48.766;2.272;2022-11-18T05:20:07;9.00;;;2.63;;
10226;SDS011;15634;48.766;2.272;2022-11-18T05:22:34;11.68;;;2.50;;
10226;SDS011;15634;48.766;2.272;2022-11-18T05:25:01;6.80;;;2.40;;
10226;SDS011;15634;48.766;2.272;2022-11-18T05:27:29;16.33;;;3.00;;
10226;SDS011;15634;48.766;2.272;2022-11-18T05:29:55;12.68;;;2.67;;
10226;SDS011;15634;48.766;2.272;2022-11-18T05:32:22;8.93;;;2.70;;
10226;SDS011;15634;48.766;2.272;2022-11-18T05:34:49;9.98;;;2.95;;
10226;SDS011;15634;48.766;2.272;2022-11-18T05:37:15;5.60;;;2.60;;
10226;SDS011;15634;48.766;2.272;2022-11-18T05:39:42;9.57;;;2.75;;
10226;SDS011;15634;48.766;2.272;2022-11-18T05:42:08;10.93;;;2.78;;
10226;SDS011;15634;48.766;2.272;2022-11-18T05:44:54;9.57;;;2.78;;
10226;SDS011;15634;48.766;2.272;2022-11-18T05:47:21;16.00;;;2.85;;
10226;SDS011;15634;48.766;2.272;2022-11-18T05:49:49;13.35;;;2.90;;
10226;SDS011;15634;48.766;2.272;2022-11-18T05:52:15;11.00;;;2.90;;
10226;SDS011;15634;48.766;2.272;2022-11-18T05:54:43;13.20;;;3.42;;
10226;SDS011;15634;48.766;2.272;2022-11-18T05:57:13;10.85;;;2.70;;
10226;SDS011;15634;48.766;2.272;2022-11-18T05:59:39;12.85;;;2.70;;
10226;SDS011;15634;48.766;2.272;2022-11-18T06:02:09;8.38;;;3.08;;
10226;SDS011;15634;48.766;2.272;2022-11-18T06:04:39;13.70;;;2.97;;
10226;SDS011;15634;48.766;2.272;2022-11-18T06:07:08;11.60;;;2.78;;
10226;SDS011;15634;48.766;2.272;2022-11-18T06:09:37;11.63;;;2.88;;
10226;SDS011;15634;48.766;2.272;2022-11-18T06:12:05;9.30;;;3.10;;
10226;SDS011;15634;48.766;2.272;2022-11-18T06:14:33;8.63;;;2.70;;
10226;SDS011;15634;48.766;2.272;2022-11-18T06:17:01;15.00;;;3.72;;
10226;SDS011;15634;48.766;2.272;2022-11-18T06:19:31;9.60;;;2.60;;
10226;SDS011;15634;48.766;2.272;2022-11-18T06:21:58;14.30;;;3.03;;
10226;SDS011;15634;48.766;2.272;2022-11-18T06:24:25;11.02;;;2.70;;
10226;SDS011;15634;48.766;2.272;2022-11-18T06:26:51;11.50;;;3.47;;
10226;SDS011;15634;48.766;2.272;2022-11-18T06:29:18;11.45;;;2.90;;
10226;SDS011;15634;48.766;2.272;2022-11-18T06:31:45;11.73;;;2.58;;
10226;SDS011;15634;48.766;2.272;2022-11-18T06:34:12;11.15;;;3.20;;
10226;SDS011;15634;48.766;2.272;2022-11-18T06:36:39;8.75;;;2.70;;
10226;SDS011;15634;48.766;2.272;2022-11-18T06:39:06;15.15;;;3.20;;
10226;SDS011;15634;48.766;2.272;2022-11-18T06:41:33;11.43;;;3.13;;
10226;SDS011;15634;48.766;2.272;2022-11-18T06:44:00;13.15;;;3.05;;
10226;SDS011;15634;48.766;2.272;2022-11-18T06:46:25;11.88;;;3.30;;
10226;SDS011;15634;48.766;2.272;2022-11-18T06:49:09;15.60;;;3.30;;
10226;SDS011;15634;48.766;2.272;2022-11-18T06:51:36;9.25;;;3.35;;
10226;SDS011;15634;48.766;2.272;2022-11-18T06:54:04;10.80;;;3.08;;
10226;SDS011;15634;48.766;2.272;2022-11-18T06:56:31;11.95;;;2.97;;
10226;SDS011;15634;48.766;2.272;2022-11-18T06:58:59;14.68;;;3.65;;
10226;SDS011;15634;48.766;2.272;2022-11-18T07:01:26;8.77;;;3.85;;
10226;SDS011;15634;48.766;2.272;2022-11-18T07:03:54;14.25;;;3.72;;
10226;SDS011;15634;48.766;2.272;2022-11-18T07:06:23;13.88;;;3.38;;
10226;SDS011;15634;48.766;2.272;2022-11-18T07:08:52;15.90;;;3.25;;
10226;SDS011;15634;48.766;2.272;2022-11-18T07:11:21;10.63;;;3.67;;
10226;SDS011;15634;48.766;2.272;2022-11-18T07:13:48;10.25;;;3.35;;
10226;SDS011;15634;48.766;2.272;2022-11-18T07:16:15;14.23;;;3.42;;
10226;SDS011;15634;48.766;2.272;2022-11-18T07:18:43;11.38;;;3.90;;
10226;SDS011;15634;48.766;2.272;2022-11-18T07:21:11;12.60;;;3.55;;
10226;SDS011;15634;48.766;2.272;2022-11-18T07:23:38;14.70;;;3.30;;
10226;SDS011;15634;48.766;2.272;2022-11-18T07:26:05;11.18;;;3.50;;
10226;SDS011;15634;48.766;2.272;2022-11-18T07:28:34;10.02;;;3.10;;
10226;SDS011;15634;48.766;2.272;2022-11-18T07:31:01;12.10;;;3.08;;
10226;SDS011;15634;48.766;2.272;2022-11-18T07:33:28;15.30;;;3.55;;
10226;SDS011;15634;48.766;2.272;2022-11-18T07:35:55;12.05;;;3.45;;
10226;SDS011;15634;48.766;2.272;2022-11-18T07:38:24;11.18;;;3.22;;
10226;SDS011;15634;48.766;2.272;2022-11-18T07:40:51;11.05;;;3.17;;
10226;SDS011;15634;48.766;2.272;2022-11-18T07:43:18;10.07;;;3.03;;
10226;SDS011;15634;48.766;2.272;2022-11-18T07:45:45;18.45;;;3.20;;
10226;SDS011;15634;48.766;2.272;2022-11-18T07:48:12;12.02;;;3.58;;
10226;SDS011;15634;48.766;2.272;2022-11-18T07:50:38;10.63;;;3.42;;
10226;SDS011;15634;48.766;2.272;2022-11-18T07:53:05;13.30;;;3.92;;
10226;SDS011;15634;48.766;2.272;2022-11-18T07:55:32;16.00;;;4.15;;
10226;SDS011;15634;48.766;2.272;2022-11-18T07:57:58;8.25;;;3.17;;
10226;SDS011;15634;48.766;2.272;2022-11-18T08:00:25;14.50;;;2.92;;
10226;SDS011;15634;48.766;2.272;2022-11-18T08:02:53;11.38;;;3.40;;
10226;SDS011;15634;48.766;2.272;2022-11-18T08:05:19;12.57;;;3.10;;
10226;SDS011;15634;48.766;2.272;2022-11-18T08:07:46;14.57;;;3.45;;
10226;SDS011;15634;48.766;2.272;2022-11-18T08:10:12;13.32;;;3.55;;
10226;SDS011;15634;48.766;2.272;2022-11-18T08:12:39;10.43;;;3.15;;
10226;SDS011;15634;48.766;2.272;2022-11-18T08:15:06;9.48;;;2.75;;
10226;SDS011;15634;48.766;2.272;2022-11-18T08:17:33;9.13;;;3.33;;
10226;SDS011;15634;48.766;2.272;2022-11-18T08:20:01;10.02;;;2.97;;
10226;SDS011;15634;48.766;2.272;2022-11-18T08:22:28;10.02;;;2.95;;
10226;SDS011;15634;48.766;2.272;2022-11-18T08:24:54;10.25;;;2.75;;
10226;SDS011;15634;48.766;2.272;2022-11-18T08:27:21;11.45;;;2.92;;
10226;SDS011;15634;48.766;2.272;2022-11-18T08:29:47;9.70;;;3.08;;
10226;SDS011;15634;48.766;2.272;2022-11-18T08:32:14;10.80;;;2.58;;
10226;SDS011;15634;48.766;2.272;2022-11-18T08:34:40;9.65;;;2.55;;
10226;SDS011;15634;48.766;2.272;2022-11-18T08:37:08;8.32;;;2.50;;
10226;SDS011;15634;48.766;2.272;2022-11-18T08:39:35;10.40;;;3.22;;
10226;SDS011;15634;48.766;2.272;2022-11-18T08:42:01;8.88;;;2.95;;
10226;SDS011;15634;48.766;2.272;2022-11-18T08:44:28;10.38;;;3.05;;
10226;SDS011;15634;48.766;2.272;2022-11-18T08:46:57;8.75;;;2.88;;
10226;SDS011;15634;48.766;2.272;2022-11-18T08:49:24;6.63;;;2.70;;
10226;SDS011;15634;48.766;2.272;2022-11-18T08:51:50;7.45;;;2.50;;
10226;SDS011;15634;48.766;2.272;2022-11-18T08:54:18;6.72;;;2.40;;
10226;SDS011;15634;48.766;2.272;2022-11-18T08:56:45;10.93;;;2.53;;
10226;SDS011;15634;48.766;2.272;2022-11-18T08:59:11;9.15;;;2.25;;
10226;SDS011;15634;48.766;2.272;2022-11-18T09:01:38;8.65;;;3.00;;
10226;SDS011;15634;48.766;2.272;2022-11-18T09:04:07;10.48;;;2.63;;
10226;SDS011;15634;48.766;2.272;2022-11-18T09:06:34;9.45;;;2.65;;
10226;SDS011;15634;48.766;2.272;2022-11-18T09:09:02;12.60;;;2.45;;
10226;SDS011;15634;48.766;2.272;2022-11-18T09:11:30;9.43;;;2.70;;
10226;SDS011;15634;48.766;2.272;2022-11-18T09:13:57;9.00;;;3.00;;
10226;SDS011;15634;48.766;2.272;2022-11-18T09:16:25;8.20;;;2.67;;
10226;SDS011;15634;48.766;2.272;2022-11-18T09:18:53;6.65;;;2.72;;
10226;SDS011;15634;48.766;2.272;2022-11-18T09:21:20;9.25;;;2.92;;
10226;SDS011;15634;48.766;2.272;2022-11-18T09:23:46;7.75;;;2.88;;
10226;SDS011;15634;48.766;2.272;2022-11-18T09:26:14;9.90;;;2.63;;
10226;SDS011;15634;48.766;2.272;2022-11-18T09:28:43;6.68;;;2.35;;
10226;SDS011;15634;48.766;2.272;2022-11-18T09:31:10;8.02;;;2.55;;
10226;SDS011;15634;48.766;2.272;2022-11-18T09:33:38;7.78;;;2.47;;
10226;SDS011;15634;48.766;2.272;2022-11-18T09:36:09;7.47;;;2.53;;
10226;SDS011;15634;48.766;2.272;2022-11-18T09:38:37;8.88;;;2.38;;
10226;SDS011;15634;48.766;2.272;2022-11-18T09:41:04;7.43;;;2.53;;
10226;SDS011;15634;48.766;2.272;2022-11-18T09:43:38;6.68;;;2.85;;
10226;SDS011;15634;48.766;2.272;2022-11-18T09:46:15;7.28;;;2.30;;
10226;SDS011;15634;48.766;2.272;2022-11-18T09:48:48;8.65;;;2.40;;
10226;SDS011;15634;48.766;2.272;2022-11-18T09:51:31;9.10;;;2.20;;
10226;SDS011;15634;48.766;2.272;2022-11-18T09:54:02;8.18;;;2.53;;
10226;SDS011;15634;48.766;2.272;2022-11-18T09:56:29;5.40;;;2.28;;
10226;SDS011;15634;48.766;2.272;2022-11-18T09:58:57;11.55;;;2.95;;
10226;SDS011;15634;48.766;2.272;2022-11-18T10:01:23;4.45;;;2.40;;
10226;SDS011;15634;48.766;2.272;2022-11-18T10:03:50;7.70;;;2.20;;
10226;SDS011;15634;48.766;2.272;2022-11-18T10:06:19;8.38;;;2.35;;
10226;SDS011;15634;48.766;2.272;2022-11-18T10:08:51;6.95;;;2.10;;
10226;SDS011;15634;48.766;2.272;2022-11-18T10:11:24;6.35;;;2.47;;
10226;SDS011;15634;48.766;2.272;2022-11-18T10:13:54;6.38;;;2.47;;
10226;SDS011;15634;48.766;2.272;2022-11-18T10:16:37;7.63;;;2.30;;
10226;SDS011;15634;48.766;2.272;2022-11-18T10:19:10;7.05;;;2.28;;
10226;SDS011;15634;48.766;2.272;2022-11-18T10:21:48;8.55;;;2.00;;
10226;SDS011;15634;48.766;2.272;2022-11-18T10:24:19;7.32;;;2.00;;
10226;SDS011;15634;48.766;2.272;2022-11-18T10:26:47;6.45;;;2.25;;
10226;SDS011;15634;48.766;2.272;2022-11-18T10:29:21;6.80;;;2.20;;
10226;SDS011;15634;48.766;2.272;2022-11-18T10:31:55;6.97;;;2.13;;
10226;SDS011;15634;48.766;2.272;2022-11-18T10:34:25;5.13;;;2.28;;
10226;SDS011;15634;48.766;2.272;2022-11-18T10:36:59;6.97;;;2.20;;
10226;SDS011;15634;48.766;2.272;2022-11-18T10:39:26;10.68;;;2.17;;
10226;SDS011;15634;48.766;2.272;2022-11-18T10:41:55;3.90;;;1.98;;
10226;SDS011;15634;48.766;2.272;2022-11-18T10:44:32;8.70;;;2.20;;
10226;SDS011;15634;48.766;2.272;2022-11-18T10:49:58;5.05;;;1.92;;
10226;SDS011;15634;48.766;2.272;2022-11-18T10:52:26;9.02;;;2.22;;
10226;SDS011;15634;48.766;2.272;2022-11-18T10:55:07;10.95;;;2.28;;
10226;SDS011;15634;48.766;2.272;2022-11-18T10:57:44;10.63;;;2.42;;
10226;SDS011;15634;48.766;2.272;2022-11-18T11:03:18;7.40;;;2.20;;
10226;SDS011;15634;48.766;2.272;2022-11-18T11:09:04;7.18;;;1.88;;
10226;SDS011;15634;48.766;2.272;2022-11-18T11:11:33;7.75;;;2.00;;
10226;SDS011;15634;48.766;2.272;2022-11-18T11:14:05;12.15;;;2.40;;
10226;SDS011;15634;48.766;2.272;2022-11-18T11:16:38;8.10;;;2.00;;
10226;SDS011;15634;48.766;2.272;2022-11-18T11:19:10;8.88;;;2.40;;
10226;SDS011;15634;48.766;2.272;2022-11-18T11:21:38;7.65;;;2.30;;
10226;SDS011;15634;48.766;2.272;2022-11-18T11:24:08;7.43;;;2.17;;
10226;SDS011;15634;48.766;2.272;2022-11-18T11:26:37;6.35;;;2.10;;
10226;SDS011;15634;48.766;2.272;2022-11-18T11:29:11;5.72;;;1.95;;
10226;SDS011;15634;48.766;2.272;2022-11-18T11:31:45;5.25;;;2.15;;
10226;SDS011;15634;48.766;2.272;2022-11-18T11:34:22;8.77;;;2.20;;
10226;SDS011;15634;48.766;2.272;2022-11-18T11:36:53;8.27;;;2.45;;
10226;SDS011;15634;48.766;2.272;2022-11-18T11:42:30;5.68;;;1.80;;
10226;SDS011;15634;48.766;2.272;2022-11-18T11:45:08;7.38;;;1.83;;
10226;SDS011;15634;48.766;2.272;2022-11-18T11:47:44;6.35;;;2.22;;
10226;SDS011;15634;48.766;2.272;2022-11-18T11:50:25;4.30;;;1.85;;
10226;SDS011;15634;48.766;2.272;2022-11-18T11:53:04;4.60;;;1.95;;
10226;SDS011;15634;48.766;2.272;2022-11-18T11:55:43;10.38;;;2.20;;
10226;SDS011;15634;48.766;2.272;2022-11-18T11:58:20;5.85;;;2.30;;
10226;SDS011;15634;48.766;2.272;2022-11-18T12:00:59;10.75;;;2.35;;
10226;SDS011;15634;48.766;2.272;2022-11-18T12:03:40;7.45;;;2.00;;
10226;SDS011;15634;48.766;2.272;2022-11-18T12:06:11;8.95;;;2.15;;
10226;SDS011;15634;48.766;2.272;2022-11-18T12:08:39;10.13;;;2.17;;
10226;SDS011;15634;48.766;2.272;2022-11-18T12:11:15;11.90;;;2.13;;
10226;SDS011;15634;48.766;2.272;2022-11-18T12:13:47;8.05;;;2.35;;
10226;SDS011;15634;48.766;2.272;2022-11-18T12:16:20;8.07;;;2.35;;
10226;SDS011;15634;48.766;2.272;2022-11-18T12:18:53;8.68;;;2.70;;
10226;SDS011;15634;48.766;2.272;2022-11-18T12:24:32;7.05;;;2.10;;
10226;SDS011;15634;48.766;2.272;2022-11-18T12:27:01;9.13;;;2.40;;
10226;SDS011;15634;48.766;2.272;2022-11-18T12:29:37;10.25;;;2.13;;
10226;SDS011;15634;48.766;2.272;2022-11-18T12:32:26;7.63;;;2.00;;
10226;SDS011;15634;48.766;2.272;2022-11-18T12:34:59;8.00;;;1.85;;
10226;SDS011;15634;48.766;2.272;2022-11-18T12:37:39;6.10;;;1.95;;
10226;SDS011;15634;48.766;2.272;2022-11-18T12:40:10;8.52;;;2.15;;
10226;SDS011;15634;48.766;2.272;2022-11-18T12:42:56;4.90;;;2.10;;
10226;SDS011;15634;48.766;2.272;2022-11-18T12:45:51;6.28;;;2.20;;
10226;SDS011;15634;48.766;2.272;2022-11-18T12:48:25;10.02;;;2.00;;
10226;SDS011;15634;48.766;2.272;2022-11-18T12:50:54;8.52;;;2.10;;
10226;SDS011;15634;48.766;2.272;2022-11-18T12:53:30;7.90;;;2.42;;
10226;SDS011;15634;48.766;2.272;2022-11-18T12:55:59;6.68;;;2.28;;
10226;SDS011;15634;48.766;2.272;2022-11-18T12:58:25;7.40;;;1.90;;
10226;SDS011;15634;48.766;2.272;2022-11-18T13:01:02;5.90;;;2.10;;
10226;SDS011;15634;48.766;2.272;2022-11-18T13:03:30;8.45;;;2.38;;
10226;SDS011;15634;48.766;2.272;2022-11-18T13:05:58;9.10;;;2.30;;
10226;SDS011;15634;48.766;2.272;2022-11-18T13:08:26;4.80;;;2.00;;
10226;SDS011;15634;48.766;2.272;2022-11-18T13:10:55;9.90;;;2.40;;
10226;SDS011;15634;48.766;2.272;2022-11-18T13:13:38;7.38;;;2.30;;
10226;SDS011;15634;48.766;2.272;2022-11-18T13:16:11;5.47;;;2.22;;
10226;SDS011;15634;48.766;2.272;2022-11-18T13:21:26;5.68;;;1.88;;
10226;SDS011;15634;48.766;2.272;2022-11-18T13:24:11;5.47;;;1.77;;
10226;SDS011;15634;48.766;2.272;2022-11-18T13:26:41;10.82;;;1.83;;
10226;SDS011;15634;48.766;2.272;2022-11-18T13:29:14;7.45;;;2.42;;
10226;SDS011;15634;48.766;2.272;2022-11-18T13:31:48;8.05;;;2.22;;
10226;SDS011;15634;48.766;2.272;2022-11-18T13:34:22;11.73;;;2.35;;
10226;SDS011;15634;48.766;2.272;2022-11-18T13:36:51;10.05;;;2.28;;
10226;SDS011;15634;48.766;2.272;2022-11-18T13:39:20;5.25;;;2.10;;
10226;SDS011;15634;48.766;2.272;2022-11-18T13:41:58;6.97;;;1.98;;
10226;SDS011;15634;48.766;2.272;2022-11-18T13:44:27;7.90;;;2.22;;
10226;SDS011;15634;48.766;2.272;2022-11-18T13:46:55;6.40;;;1.90;;
10226;SDS011;15634;48.766;2.272;2022-11-18T13:49:29;4.20;;;1.75;;
10226;SDS011;15634;48.766;2.272;2022-11-18T13:52:02;7.40;;;1.77;;
10226;SDS011;15634;48.766;2.272;2022-11-18T13:54:29;5.88;;;1.92;;
10226;SDS011;15634;48.766;2.272;2022-11-18T13:56:55;5.32;;;2.03;;
10226;SDS011;15634;48.766;2.272;2022-11-18T13:59:23;6.75;;;2.10;;
10226;SDS011;15634;48.766;2.272;2022-11-18T14:01:51;4.75;;;1.95;;
10226;SDS011;15634;48.766;2.272;2022-11-18T14:04:20;7.03;;;2.30;;
10226;SDS011;15634;48.766;2.272;2022-11-18T14:06:48;7.15;;;2.50;;
10226;SDS011;15634;48.766;2.272;2022-11-18T14:09:17;6.57;;;2.92;;
10226;SDS011;15634;48.766;2.272;2022-11-18T14:11:46;11.43;;;2.80;;
10226;SDS011;15634;48.766;2.272;2022-11-18T14:14:30;8.55;;;2.85;;
10226;SDS011;15634;48.766;2.272;2022-11-18T14:17:04;5.32;;;2.40;;
10226;SDS011;15634;48.766;2.272;2022-11-18T14:19:41;9.23;;;3.05;;
10226;SDS011;15634;48.766;2.272;2022-11-18T14:22:10;12.85;;;3.28;;
10226;SDS011;15634;48.766;2.272;2022-11-18T14:24:39;8.82;;;2.95;;
10226;SDS011;15634;48.766;2.272;2022-11-18T14:30:20;7.97;;;2.10;;
10226;SDS011;15634;48.766;2.272;2022-11-18T14:33:01;10.15;;;2.70;;
10226;SDS011;15634;48.766;2.272;2022-11-18T14:35:38;10.52;;;3.53;;
10226;SDS011;15634;48.766;2.272;2022-11-18T14:38:09;9.30;;;2.40;;
10226;SDS011;15634;48.766;2.272;2022-11-18T14:40:37;6.10;;;2.15;;
10226;SDS011;15634;48.766;2.272;2022-11-18T14:43:04;7.15;;;2.00;;
10226;SDS011;15634;48.766;2.272;2022-11-18T14:45:32;8.90;;;2.40;;
10226;SDS011;15634;48.766;2.272;2022-11-18T14:47:58;8.52;;;2.35;;
10226;SDS011;15634;48.766;2.272;2022-11-18T14:50:25;6.53;;;2.00;;
10226;SDS011;15634;48.766;2.272;2022-11-18T14:52:52;8.88;;;2.20;;
10226;SDS011;15634;48.766;2.272;2022-11-18T14:55:18;9.15;;;2.15;;
10226;SDS011;15634;48.766;2.272;2022-11-18T14:57:45;10.27;;;2.20;;
10226;SDS011;15634;48.766;2.272;2022-11-18T15:00:12;5.60;;;2.25;;
10226;SDS011;15634;48.766;2.272;2022-11-18T15:02:41;5.97;;;2.20;;
10226;SDS011;15634;48.766;2.272;2022-11-18T15:05:08;5.93;;;1.90;;
10226;SDS011;15634;48.766;2.272;2022-11-18T15:07:35;8.10;;;2.22;;
10226;SDS011;15634;48.766;2.272;2022-11-18T15:10:02;5.50;;;2.40;;
10226;SDS011;15634;48.766;2.272;2022-11-18T15:12:29;5.70;;;2.03;;
10226;SDS011;15634;48.766;2.272;2022-11-18T15:14:55;7.07;;;2.30;;
10226;SDS011;15634;48.766;2.272;2022-11-18T15:17:22;12.48;;;2.78;;
10226;SDS011;15634;48.766;2.272;2022-11-18T15:19:50;8.63;;;2.30;;